createdAt,value
2019-02-27T00:01:49.645Z,54.13
2019-02-27T00:04:12.950Z,48.77
2019-02-27T00:06:37.368Z,42.53
2019-02-27T00:09:01.833Z,33.17
2019-02-27T00:11:26.233Z,29.30
2019-02-27T00:13:50.745Z,40.17
2019-02-27T00:16:15.234Z,33.57
2019-02-27T00:18:39.817Z,30.27
2019-02-27T00:21:04.226Z,32.13
2019-02-27T00:23:28.695Z,30.47
2019-02-27T00:25:53.196Z,32.33
2019-02-27T00:28:17.611Z,27.23
2019-02-27T00:30:42.199Z,29.27
2019-02-27T00:33:06.625Z,28.73
2019-02-27T00:35:31.059Z,30.27
2019-02-27T00:37:55.473Z,30.70
2019-02-27T00:40:19.926Z,27.20
2019-02-27T00:42:44.335Z,28.90
2019-02-27T00:45:10.624Z,29.17
2019-02-27T00:47:35.046Z,27.70
2019-02-27T00:49:59.488Z,28.53
2019-02-27T00:52:23.984Z,26.57
2019-02-27T00:54:48.423Z,30.03
2019-02-27T00:57:12.851Z,28.13
2019-02-27T00:59:37.273Z,29.73
2019-02-27T01:02:01.764Z,27.43
2019-02-27T01:04:26.192Z,29.10
2019-02-27T01:06:50.669Z,29.57
2019-02-27T01:09:15.571Z,27.77
2019-02-27T01:11:39.983Z,28.20
2019-02-27T01:14:04.689Z,28.57
2019-02-27T01:16:29.163Z,28.67
2019-02-27T01:18:53.603Z,28.47
2019-02-27T01:21:19.956Z,29.00
2019-02-27T01:23:44.778Z,28.90
2019-02-27T01:26:09.710Z,26.87
2019-02-27T01:28:34.126Z,24.13
2019-02-27T01:30:58.574Z,28.07
2019-02-27T01:33:22.986Z,25.67
2019-02-27T01:35:51.372Z,26.10
2019-02-27T01:38:13.612Z,27.10
2019-02-27T01:40:38.040Z,28.17
2019-02-27T01:43:05.290Z,27.10
2019-02-27T01:45:28.649Z,28.50
2019-02-27T01:47:53.165Z,26.87
2019-02-27T01:50:31.764Z,27.43
2019-02-27T01:52:56.268Z,26.63
2019-02-27T01:55:22.427Z,27.97
2019-02-27T01:57:46.810Z,25.53
2019-02-27T02:00:11.388Z,27.07
2019-02-27T02:02:37.581Z,27.37
2019-02-27T02:05:02.075Z,26.00
2019-02-27T02:07:26.504Z,23.63
2019-02-27T02:09:52.188Z,23.17
2019-02-27T02:12:20.137Z,26.60
2019-02-27T02:14:54.308Z,25.63
2019-02-27T02:17:34.212Z,25.47
2019-02-27T02:20:19.508Z,26.63
2019-02-27T02:23:01.739Z,26.73
2019-02-27T02:25:38.126Z,26.07
2019-02-27T02:28:20.315Z,22.90
2019-02-27T02:31:13.157Z,25.47
2019-02-27T02:33:52.212Z,27.43
2019-02-27T02:36:31.771Z,24.47
2019-02-27T02:39:19.130Z,28.27
2019-02-27T02:42:04.409Z,23.57
2019-02-27T02:44:31.899Z,25.17
2019-02-27T02:46:59.405Z,26.40
2019-02-27T02:49:43.939Z,25.20
2019-02-27T02:52:17.265Z,27.37
2019-02-27T02:54:59.713Z,27.53
2019-02-27T02:57:45.011Z,26.87
2019-02-27T03:00:21.821Z,26.00
2019-02-27T03:03:00.802Z,27.13
2019-02-27T03:05:42.238Z,26.30
2019-02-27T03:08:24.399Z,27.50
2019-02-27T03:10:55.041Z,27.17
2019-02-27T03:13:24.324Z,26.47
2019-02-27T03:16:19.016Z,25.83
2019-02-27T03:18:52.249Z,26.40
2019-02-27T03:21:28.587Z,27.13
2019-02-27T03:23:57.496Z,26.63
2019-02-27T03:26:27.992Z,27.73
2019-02-27T03:28:55.504Z,26.73
2019-02-27T03:31:34.905Z,28.07
2019-02-27T03:34:35.687Z,26.10
2019-02-27T03:37:17.603Z,27.03
2019-02-27T03:40:03.100Z,27.77
2019-02-27T03:42:57.336Z,25.57
2019-02-27T03:45:47.530Z,27.17
2019-02-27T03:48:39.120Z,28.63
2019-02-27T03:51:24.397Z,27.63
2019-02-27T03:54:20.588Z,26.77
2019-02-27T03:56:46.855Z,27.73
2019-02-27T03:59:30.610Z,28.87
2019-02-27T04:02:16.576Z,28.13
2019-02-27T04:04:55.801Z,27.30
2019-02-27T04:07:32.739Z,26.63
2019-02-27T04:09:57.260Z,27.23
2019-02-27T04:12:21.753Z,26.73
2019-02-27T04:14:46.162Z,29.07
2019-02-27T04:17:10.600Z,28.03
2019-02-27T04:19:38.722Z,28.67
2019-02-27T04:22:02.066Z,28.17
2019-02-27T04:24:26.512Z,30.17
2019-02-27T04:26:50.957Z,30.13
2019-02-27T04:29:15.368Z,29.17
2019-02-27T04:31:39.810Z,29.50
2019-02-27T04:34:04.306Z,28.73
2019-02-27T04:36:28.754Z,31.27
2019-02-27T04:38:53.175Z,26.77
2019-02-27T04:41:18.055Z,29.43
2019-02-27T04:43:43.201Z,29.00
2019-02-27T04:46:07.612Z,29.67
2019-02-27T04:48:32.136Z,30.40
2019-02-27T04:50:56.614Z,29.20
2019-02-27T04:53:21.037Z,28.67
2019-02-27T04:55:47.938Z,29.33
2019-02-27T04:58:11.601Z,28.23
2019-02-27T05:00:36.083Z,27.10
2019-02-27T05:03:00.518Z,27.17
2019-02-27T05:05:24.938Z,28.80
2019-02-27T05:07:49.352Z,27.73
2019-02-27T05:10:13.860Z,25.77
2019-02-27T05:12:38.330Z,29.03
2019-02-27T05:15:04.186Z,25.30
2019-02-27T05:17:28.882Z,26.43
2019-02-27T05:19:53.321Z,29.87
2019-02-27T05:22:17.743Z,25.43
2019-02-27T05:24:42.199Z,29.53
2019-02-27T05:27:06.695Z,27.60
2019-02-27T05:29:31.126Z,26.60
2019-02-27T05:31:55.544Z,25.93
2019-02-27T05:34:19.985Z,24.03
2019-02-27T05:36:44.395Z,25.30
2019-02-27T05:39:08.837Z,24.87
2019-02-27T05:41:33.793Z,29.30
2019-02-27T05:43:58.257Z,27.83
2019-02-27T05:46:22.712Z,25.30
2019-02-27T05:48:47.139Z,28.97
2019-02-27T05:51:11.579Z,27.40
2019-02-27T05:53:36.166Z,29.83
2019-02-27T05:56:00.601Z,27.57
2019-02-27T05:58:25.025Z,26.63
2019-02-27T06:00:49.514Z,25.40
2019-02-27T06:03:15.955Z,27.40
2019-02-27T06:05:40.067Z,24.80
2019-02-27T06:08:04.556Z,25.23
2019-02-27T06:10:28.997Z,29.87
2019-02-27T06:12:53.414Z,28.30
2019-02-27T06:15:18.804Z,27.57
2019-02-27T06:17:43.749Z,27.47
2019-02-27T06:20:09.426Z,25.03
2019-02-27T06:22:33.847Z,23.97
2019-02-27T06:24:58.285Z,25.50
2019-02-27T06:27:22.714Z,24.43
2019-02-27T06:29:47.173Z,30.03
2019-02-27T06:32:12.343Z,26.87
2019-02-27T06:34:37.495Z,26.20
2019-02-27T06:37:01.963Z,25.60
2019-02-27T06:39:26.666Z,27.47
2019-02-27T06:41:51.103Z,28.93
2019-02-27T06:44:15.634Z,25.87
2019-02-27T06:46:40.078Z,25.97
2019-02-27T06:49:04.566Z,26.30
2019-02-27T06:51:29.052Z,25.37
2019-02-27T06:53:53.483Z,25.10
2019-02-27T06:56:17.940Z,25.67
2019-02-27T06:58:42.344Z,23.80
2019-02-27T07:01:09.371Z,25.93
2019-02-27T07:03:33.070Z,23.40
2019-02-27T07:05:57.597Z,25.17
2019-02-27T07:08:22.136Z,25.47
2019-02-27T07:10:46.579Z,25.10
2019-02-27T07:13:11.078Z,24.87
2019-02-27T07:15:35.493Z,25.97
2019-02-27T07:17:59.911Z,25.73
2019-02-27T07:20:25.358Z,23.17
2019-02-27T07:22:49.786Z,24.50
2019-02-27T07:25:18.441Z,26.47
2019-02-27T07:27:42.953Z,26.87
2019-02-27T07:30:13.156Z,22.27
2019-02-27T07:32:37.686Z,24.63
2019-02-27T07:35:02.105Z,25.73
2019-02-27T07:37:26.606Z,22.93
2019-02-27T07:39:51.021Z,22.03
2019-02-27T07:42:15.459Z,22.80
2019-02-27T07:44:39.874Z,27.03
2019-02-27T07:47:04.335Z,24.40
2019-02-27T07:49:30.935Z,24.27
2019-02-27T07:51:57.939Z,24.83
2019-02-27T07:54:20.991Z,23.63
2019-02-27T07:56:45.455Z,23.13
2019-02-27T07:59:09.863Z,24.27
2019-02-27T08:01:43.265Z,22.00
2019-02-27T08:04:00.408Z,21.53
2019-02-27T08:06:24.832Z,21.17
2019-02-27T08:08:49.281Z,23.17
2019-02-27T08:11:14.253Z,21.53
2019-02-27T08:13:38.825Z,20.80
2019-02-27T08:16:03.475Z,23.63
2019-02-27T08:18:30.565Z,23.03
2019-02-27T08:20:54.666Z,20.77
2019-02-27T08:23:19.683Z,25.43
2019-02-27T08:25:44.096Z,21.70
2019-02-27T08:28:08.615Z,22.37
2019-02-27T08:30:33.116Z,22.17
2019-02-27T08:32:57.636Z,23.07
2019-02-27T08:35:22.191Z,23.27
2019-02-27T08:37:46.723Z,21.30
2019-02-27T08:40:15.146Z,21.47
2019-02-27T08:42:40.547Z,22.90
2019-02-27T08:45:07.438Z,24.77
2019-02-27T08:47:33.625Z,24.63
2019-02-27T08:49:58.634Z,21.20
2019-02-27T08:52:23.094Z,25.40
2019-02-27T08:54:47.530Z,23.83
2019-02-27T08:57:12.018Z,22.87
2019-02-27T08:59:36.893Z,20.70
2019-02-27T09:02:02.742Z,19.80
2019-02-27T09:04:27.187Z,22.53
2019-02-27T09:06:51.615Z,21.10
2019-02-27T09:09:17.943Z,20.17
2019-02-27T09:11:42.294Z,19.70
2019-02-27T09:14:06.781Z,20.50
2019-02-27T09:16:31.230Z,20.03
2019-02-27T09:18:55.647Z,21.23
2019-02-27T09:21:20.097Z,21.13
2019-02-27T09:23:44.983Z,21.63
2019-02-27T09:26:09.758Z,19.77
2019-02-27T09:28:34.208Z,19.67
2019-02-27T09:31:03.344Z,20.47
2019-02-27T09:33:25.740Z,20.73
2019-02-27T09:35:50.270Z,19.27
2019-02-27T09:38:14.705Z,22.20
2019-02-27T09:40:39.694Z,19.57
2019-02-27T09:43:06.228Z,20.83
2019-02-27T09:45:35.367Z,21.33
2019-02-27T09:48:00.808Z,21.33
2019-02-27T09:50:31.024Z,20.60
2019-02-27T09:52:55.524Z,19.77
2019-02-27T09:55:20.840Z,22.07
2019-02-27T09:57:45.366Z,19.73
2019-02-27T10:00:30.650Z,20.43
2019-02-27T10:02:55.176Z,22.67
2019-02-27T10:05:19.680Z,18.63
2019-02-27T10:07:44.126Z,21.47
2019-02-27T10:10:10.440Z,17.93
2019-02-27T10:12:34.752Z,19.90
2019-02-27T10:14:59.218Z,18.10
2019-02-27T10:17:23.649Z,19.53
2019-02-27T10:19:48.072Z,19.80
2019-02-27T10:22:12.596Z,19.97
2019-02-27T10:24:37.620Z,17.80
2019-02-27T10:27:02.148Z,21.73
2019-02-27T10:29:26.584Z,19.10
2019-02-27T10:31:51.004Z,18.93
2019-02-27T10:34:17.615Z,17.67
2019-02-27T10:36:41.730Z,17.07
2019-02-27T10:39:07.099Z,19.03
2019-02-27T10:41:31.512Z,20.13
2019-02-27T10:43:56.589Z,20.07
2019-02-27T10:46:23.649Z,19.43
2019-02-27T10:48:48.027Z,18.27
2019-02-27T10:51:12.447Z,18.83
2019-02-27T10:53:36.897Z,18.67
2019-02-27T10:56:01.360Z,18.07
2019-02-27T10:58:25.886Z,16.77
2019-02-27T11:00:50.383Z,18.20
2019-02-27T11:03:14.915Z,15.90
2019-02-27T11:05:40.083Z,18.47
2019-02-27T11:08:04.647Z,22.03
2019-02-27T11:10:29.253Z,20.13
2019-02-27T11:12:53.824Z,16.80
2019-02-27T11:15:23.051Z,19.37
2019-02-27T11:17:47.488Z,16.50
2019-02-27T11:20:12.988Z,14.23
2019-02-27T11:22:37.485Z,13.77
2019-02-27T11:25:02.066Z,15.07
2019-02-27T11:27:26.491Z,17.17
2019-02-27T11:29:51.009Z,16.67
2019-02-27T11:32:15.445Z,14.27
2019-02-27T11:34:39.974Z,14.50
2019-02-27T11:37:04.451Z,11.63
2019-02-27T11:39:30.514Z,10.70
2019-02-27T11:41:55.080Z,10.93
2019-02-27T11:44:19.595Z,10.30
2019-02-27T11:46:44.081Z,11.70
2019-02-27T11:49:08.493Z,9.87
2019-02-27T11:51:32.955Z,10.33
2019-02-27T11:53:57.377Z,9.87
2019-02-27T11:56:21.825Z,9.90
2019-02-27T11:58:46.261Z,8.33
2019-02-27T12:01:12.186Z,7.60
2019-02-27T12:03:36.806Z,9.10
2019-02-27T12:06:01.244Z,5.03
2019-02-27T12:08:26.771Z,3.93
2019-02-27T12:10:51.449Z,6.00
2019-02-27T12:13:15.875Z,3.97
2019-02-27T12:15:43.352Z,5.57
2019-02-27T12:18:06.493Z,4.83
2019-02-27T12:20:31.124Z,5.13
2019-02-27T12:22:55.528Z,4.03
2019-02-27T12:25:21.518Z,4.10
2019-02-27T12:27:49.794Z,4.10
2019-02-27T12:30:25.767Z,4.70
2019-02-27T12:32:50.410Z,4.00
2019-02-27T12:35:20.495Z,4.30
2019-02-27T12:37:44.967Z,3.87
2019-02-27T12:40:12.696Z,4.13
2019-02-27T12:42:37.686Z,3.50
2019-02-27T12:45:03.373Z,3.62
2019-02-27T12:47:27.787Z,4.40
2019-02-27T12:49:54.187Z,4.62
2019-02-27T12:52:18.412Z,3.90
2019-02-27T12:54:42.844Z,4.90
2019-02-27T12:57:07.367Z,7.30
2019-02-27T12:59:33.019Z,5.58
2019-02-27T13:01:58.259Z,6.17
2019-02-27T13:04:22.867Z,6.28
2019-02-27T13:06:47.782Z,4.80
2019-02-27T13:09:12.645Z,6.85
2019-02-27T13:11:39.046Z,5.00
2019-02-27T13:14:03.256Z,5.95
2019-02-27T13:16:27.724Z,7.28
2019-02-27T13:18:55.142Z,5.97
2019-02-27T13:21:21.307Z,5.00
2019-02-27T13:23:45.775Z,6.33
2019-02-27T13:26:10.251Z,5.40
2019-02-27T13:28:34.973Z,4.83
2019-02-27T13:30:59.386Z,5.47
2019-02-27T13:33:23.811Z,6.60
2019-02-27T13:35:48.384Z,4.65
2019-02-27T13:38:17.730Z,5.22
2019-02-27T13:40:39.610Z,5.00
2019-02-27T13:43:04.477Z,5.85
2019-02-27T13:45:30.735Z,10.35
2019-02-27T13:47:55.692Z,4.35
2019-02-27T13:50:23.440Z,6.60
2019-02-27T13:52:49.900Z,5.20
2019-02-27T13:55:16.486Z,4.92
2019-02-27T13:57:41.222Z,4.33
2019-02-27T14:00:20.381Z,5.42
2019-02-27T14:02:41.000Z,4.53
2019-02-27T14:05:08.282Z,4.10
2019-02-27T14:07:33.082Z,4.87
2019-02-27T14:09:57.987Z,4.78
2019-02-27T14:12:22.747Z,5.12
2019-02-27T14:14:52.139Z,4.15
2019-02-27T14:17:14.108Z,7.53
2019-02-27T14:19:38.567Z,5.00
2019-02-27T14:22:07.322Z,4.65
2019-02-27T14:24:29.151Z,5.25
2019-02-27T14:26:53.560Z,5.95
2019-02-27T14:29:18.103Z,6.05
2019-02-27T14:31:43.435Z,7.17
2019-02-27T14:34:08.524Z,5.30
2019-02-27T14:36:32.985Z,5.83
2019-02-27T14:38:57.440Z,6.80
2019-02-27T14:41:21.853Z,6.60
2019-02-27T14:43:46.293Z,6.12
2019-02-27T14:46:11.494Z,6.60
2019-02-27T14:48:36.692Z,5.50
2019-02-27T14:51:01.189Z,7.20
2019-02-27T14:53:25.665Z,8.43
2019-02-27T14:55:50.175Z,7.58
2019-02-27T14:58:15.241Z,6.08
2019-02-27T15:00:40.979Z,5.33
2019-02-27T15:03:05.714Z,6.22
2019-02-27T15:05:30.379Z,5.25
2019-02-27T15:07:55.005Z,7.92
2019-02-27T15:10:21.768Z,5.40
2019-02-27T15:12:46.298Z,6.28
2019-02-27T15:15:19.755Z,5.40
2019-02-27T15:17:44.151Z,8.33
2019-02-27T15:20:11.970Z,4.62
2019-02-27T15:22:36.526Z,5.97
2019-02-27T15:25:01.053Z,7.33
2019-02-27T15:27:25.709Z,9.73
2019-02-27T15:29:50.321Z,9.03
2019-02-27T15:32:14.737Z,8.35
2019-02-27T15:34:39.168Z,9.43
2019-02-27T15:37:04.236Z,10.40
2019-02-27T15:39:29.469Z,9.43
2019-02-27T15:41:53.931Z,16.87
2019-02-27T15:44:18.348Z,16.62
2019-02-27T15:46:42.871Z,9.98
2019-02-27T15:49:07.288Z,9.58
2019-02-27T15:51:32.482Z,9.33
2019-02-27T15:53:57.624Z,11.80
2019-02-27T15:56:22.095Z,10.48
2019-02-27T15:58:46.586Z,9.37
2019-02-27T16:01:11.080Z,11.67
2019-02-27T16:03:35.527Z,11.50
2019-02-27T16:06:05.184Z,10.20
2019-02-27T16:08:26.219Z,9.93
2019-02-27T16:10:54.844Z,8.70
2019-02-27T16:13:16.781Z,11.60
2019-02-27T16:15:41.213Z,11.17
2019-02-27T16:18:05.681Z,12.43
2019-02-27T16:20:30.589Z,11.47
2019-02-27T16:22:55.115Z,12.23
2019-02-27T16:25:21.470Z,13.10
2019-02-27T16:27:46.268Z,10.10
2019-02-27T16:30:13.753Z,16.47
2019-02-27T16:32:38.210Z,13.03
2019-02-27T16:35:04.372Z,16.03
2019-02-27T16:37:28.841Z,13.20
2019-02-27T16:39:55.190Z,17.63
2019-02-27T16:42:19.418Z,18.30
2019-02-27T16:44:43.867Z,14.50
2019-02-27T16:47:08.293Z,18.27
2019-02-27T16:49:32.745Z,22.70
2019-02-27T16:51:57.169Z,19.27
2019-02-27T16:54:24.038Z,15.77
2019-02-27T16:56:50.062Z,9.70
2019-02-27T16:59:14.070Z,10.93
2019-02-27T17:01:38.578Z,10.87
2019-02-27T17:04:03.101Z,9.17
2019-02-27T17:06:27.666Z,12.93
2019-02-27T17:08:52.146Z,12.30
2019-02-27T17:11:16.637Z,9.63
2019-02-27T17:13:41.074Z,10.20
2019-02-27T17:16:07.095Z,10.70
2019-02-27T17:18:31.715Z,12.20
2019-02-27T17:20:56.127Z,11.40
2019-02-27T17:23:20.587Z,10.40
2019-02-27T17:25:45.060Z,13.73
2019-02-27T17:28:11.638Z,17.93
2019-02-27T17:30:38.030Z,18.77
2019-02-27T17:33:04.276Z,22.53
2019-02-27T17:35:28.987Z,29.40
2019-02-27T17:37:53.492Z,18.97
2019-02-27T17:40:18.946Z,26.03
2019-02-27T17:42:43.761Z,18.50
2019-02-27T17:45:13.074Z,13.37
2019-02-27T17:47:37.716Z,12.47
2019-02-27T17:50:02.144Z,12.83
2019-02-27T17:52:26.584Z,11.93
2019-02-27T17:54:51.129Z,15.87
2019-02-27T17:57:15.538Z,15.70
2019-02-27T17:59:42.302Z,17.30
2019-02-27T18:02:07.806Z,15.67
2019-02-27T18:04:32.299Z,13.70
2019-02-27T18:06:59.821Z,15.93
2019-02-27T18:09:23.445Z,14.57
2019-02-27T18:11:52.405Z,13.57
2019-02-27T18:14:17.784Z,14.87
2019-02-27T18:16:42.171Z,18.13
2019-02-27T18:19:06.630Z,19.97
2019-02-27T18:21:33.806Z,18.23
2019-02-27T18:23:58.890Z,17.23
2019-02-27T18:26:25.168Z,15.27
2019-02-27T18:28:49.597Z,18.90
2019-02-27T18:31:14.117Z,20.37
2019-02-27T18:33:38.632Z,20.73
2019-02-27T18:36:04.865Z,18.20
2019-02-27T18:38:29.250Z,26.20
2019-02-27T18:40:53.795Z,21.47
2019-02-27T18:43:27.222Z,32.63
2019-02-27T18:45:54.528Z,27.67
2019-02-27T18:48:20.586Z,25.13
2019-02-27T18:50:48.979Z,21.73
2019-02-27T18:53:17.639Z,18.47
2019-02-27T18:55:47.892Z,18.33
2019-02-27T18:58:13.832Z,15.80
2019-02-27T19:00:42.940Z,17.83
2019-02-27T19:03:10.396Z,20.93
2019-02-27T19:05:41.759Z,18.00
2019-02-27T19:08:16.698Z,17.67
2019-02-27T19:10:50.842Z,21.40
2019-02-27T19:13:26.003Z,19.70
2019-02-27T19:15:53.448Z,16.80
2019-02-27T19:18:20.573Z,14.70
2019-02-27T19:20:47.636Z,15.90
2019-02-27T19:23:17.154Z,18.00
2019-02-27T19:25:41.853Z,14.73
2019-02-27T19:28:13.166Z,18.87
2019-02-27T19:30:41.655Z,17.47
2019-02-27T19:33:17.453Z,16.40
2019-02-27T19:35:42.123Z,17.07
2019-02-27T19:38:12.575Z,17.40
2019-02-27T19:40:36.261Z,16.27
2019-02-27T19:43:06.513Z,16.67
2019-02-27T19:45:35.896Z,15.23
2019-02-27T19:47:57.422Z,15.50
2019-02-27T19:50:25.351Z,14.67
2019-02-27T19:52:54.029Z,18.27
2019-02-27T19:55:18.655Z,18.63
2019-02-27T19:57:47.273Z,14.33
2019-02-27T20:00:23.084Z,17.23
2019-02-27T20:02:55.251Z,15.73
2019-02-27T20:05:16.457Z,18.03
2019-02-27T20:07:43.310Z,20.23
2019-02-27T20:10:12.779Z,18.97
2019-02-27T20:12:39.009Z,19.67
2019-02-27T20:15:11.774Z,17.37
2019-02-27T20:17:36.485Z,18.57
2019-02-27T20:20:04.104Z,18.67
2019-02-27T20:22:27.863Z,15.07
2019-02-27T20:24:56.594Z,14.63
2019-02-27T20:27:32.973Z,19.83
2019-02-27T20:30:14.081Z,19.47
2019-02-27T20:32:30.214Z,18.33
2019-02-27T20:34:54.802Z,15.43
2019-02-27T20:37:21.022Z,13.33
2019-02-27T20:39:49.476Z,15.60
2019-02-27T20:42:24.675Z,15.90
2019-02-27T20:44:49.838Z,13.13
2019-02-27T20:47:21.887Z,18.77
2019-02-27T20:49:49.710Z,14.63
2019-02-27T20:52:14.903Z,12.93
2019-02-27T20:54:41.275Z,15.73
2019-02-27T20:57:08.086Z,13.60
2019-02-27T20:59:33.881Z,14.03
2019-02-27T21:02:03.586Z,15.77
2019-02-27T21:04:32.288Z,13.63
2019-02-27T21:07:00.907Z,13.03
2019-02-27T21:09:25.163Z,14.40
2019-02-27T21:11:49.555Z,12.60
2019-02-27T21:14:14.049Z,13.53
2019-02-27T21:16:40.169Z,11.87
2019-02-27T21:19:16.834Z,12.50
2019-02-27T21:21:41.309Z,17.03
2019-02-27T21:24:06.491Z,18.53
2019-02-27T21:26:32.645Z,14.07
2019-02-27T21:28:58.999Z,17.40
2019-02-27T21:31:27.586Z,13.67
2019-02-27T21:33:51.430Z,15.77
2019-02-27T21:36:16.093Z,13.87
2019-02-27T21:38:40.571Z,15.67
2019-02-27T21:41:05.163Z,13.83
2019-02-27T21:43:32.082Z,15.57
2019-02-27T21:45:56.668Z,14.63
2019-02-27T21:48:23.397Z,15.73
2019-02-27T21:50:47.378Z,14.33
2019-02-27T21:53:11.791Z,15.07
2019-02-27T21:55:36.316Z,13.23
2019-02-27T21:58:00.703Z,14.00
2019-02-27T22:00:28.019Z,15.17
2019-02-27T22:02:56.637Z,15.37
2019-02-27T22:05:21.128Z,13.90
2019-02-27T22:07:45.712Z,13.73
2019-02-27T22:10:19.455Z,13.67
2019-02-27T22:12:43.905Z,13.93
2019-02-27T22:15:13.055Z,14.47
2019-02-27T22:17:37.770Z,14.67
2019-02-27T22:20:02.183Z,15.20
2019-02-27T22:22:26.620Z,15.47
2019-02-27T22:24:52.226Z,14.30
2019-02-27T22:27:17.300Z,17.33
2019-02-27T22:29:42.692Z,15.63
2019-02-27T22:32:07.185Z,16.00
2019-02-27T22:34:31.656Z,13.77
2019-02-27T22:36:56.066Z,13.57
2019-02-27T22:39:22.107Z,16.33
2019-02-27T22:41:46.496Z,14.63
2019-02-27T22:44:10.929Z,12.87
2019-02-27T22:46:35.369Z,15.80
2019-02-27T22:49:01.013Z,14.40
2019-02-27T22:51:25.599Z,15.87
2019-02-27T22:53:50.036Z,14.37
2019-02-27T22:56:16.839Z,15.30
2019-02-27T22:58:40.600Z,16.40
2019-02-27T23:01:10.215Z,14.70
2019-02-27T23:03:40.566Z,15.00
2019-02-27T23:06:05.899Z,14.30
2019-02-27T23:08:30.395Z,13.10
2019-02-27T23:10:55.744Z,16.77
2019-02-27T23:13:20.344Z,14.43
2019-02-27T23:15:44.946Z,13.67
2019-02-27T23:18:09.522Z,15.00
2019-02-27T23:20:34.218Z,18.20
2019-02-27T23:23:02.424Z,14.53
2019-02-27T23:25:25.307Z,13.30
2019-02-27T23:27:49.789Z,15.30
2019-02-27T23:30:15.799Z,14.77
2019-02-27T23:32:41.094Z,12.20
2019-02-27T23:35:06.579Z,14.13
2019-02-27T23:37:31.381Z,14.37
2019-02-27T23:39:56.129Z,14.63
2019-02-27T23:42:20.857Z,13.77
2019-02-27T23:44:45.711Z,14.10
2019-02-27T23:47:10.629Z,15.03
2019-02-27T23:49:39.556Z,13.47
2019-02-27T23:52:01.699Z,13.53
2019-02-27T23:54:26.367Z,13.77
2019-02-27T23:56:51.821Z,10.80
2019-02-27T23:59:17.719Z,11.33
